TimeEST,TemperatureF,Dew PointF,Humidity,Sea Level PressureIn,VisibilityMPH,Wind Direction,Wind SpeedMPH,Gust SpeedMPH,PrecipitationIn,Events,Conditions,WindDirDegrees,DateUTC
12:23 AM,19.4,15.8,86,30.39,10.0,Calm,Calm,-,0.00,,Overcast,0,2013-02-22 05:23:00
12:54 AM,21.0,15.1,78,30.42,10.0,East,5.8,-,0.00,,Overcast,90,2013-02-22 05:54:00
1:43 AM,21.2,15.8,80,30.37,10.0,ENE,5.8,-,N/A,,Overcast,60,2013-02-22 06:43:00
1:54 AM,21.0,15.1,78,30.40,10.0,East,5.8,-,N/A,,Overcast,80,2013-02-22 06:54:00
2:54 AM,19.0,15.1,85,30.40,10.0,Calm,Calm,-,N/A,,Partly Cloudy,0,2013-02-22 07:54:00
3:08 AM,19.4,15.8,86,30.37,10.0,Calm,Calm,-,N/A,,Mostly Cloudy,0,2013-02-22 08:08:00
3:54 AM,21.0,16.0,81,30.38,10.0,Calm,Calm,-,N/A,,Overcast,0,2013-02-22 08:54:00
4:41 AM,19.4,15.8,86,30.36,10.0,Calm,Calm,-,N/A,,Partly Cloudy,0,2013-02-22 09:41:00
4:54 AM,19.9,15.1,81,30.39,10.0,Calm,Calm,-,N/A,,Clear,0,2013-02-22 09:54:00
5:54 AM,15.1,12.0,88,30.40,10.0,Calm,Calm,-,N/A,,Clear,0,2013-02-22 10:54:00
6:54 AM,14.0,9.0,80,30.45,9.0,Calm,Calm,-,N/A,,Clear,0,2013-02-22 11:54:00
7:54 AM,15.1,12.0,88,30.46,10.0,Calm,Calm,-,N/A,,Clear,0,2013-02-22 12:54:00
8:54 AM,21.9,16.0,78,30.45,10.0,East,4.6,-,N/A,,Scattered Clouds,80,2013-02-22 13:54:00
9:54 AM,26.1,18.0,71,30.44,10.0,Calm,Calm,-,N/A,,Overcast,0,2013-02-22 14:54:00
10:54 AM,28.0,19.9,72,30.42,10.0,North,3.5,-,N/A,,Overcast,350,2013-02-22 15:54:00
11:54 AM,30.0,19.9,66,30.41,10.0,Calm,Calm,-,N/A,,Overcast,0,2013-02-22 16:54:00
12:54 PM,30.0,21.0,69,30.38,10.0,Calm,Calm,-,N/A,,Overcast,0,2013-02-22 17:54:00
1:54 PM,33.1,21.0,61,30.35,10.0,Calm,Calm,-,N/A,,Overcast,0,2013-02-22 18:54:00
2:54 PM,32.0,21.0,64,30.34,10.0,Calm,Calm,-,N/A,,Mostly Cloudy,0,2013-02-22 19:54:00
3:54 PM,33.1,19.9,59,30.31,10.0,Calm,Calm,-,N/A,,Scattered Clouds,0,2013-02-22 20:54:00
4:54 PM,30.9,21.9,69,30.30,10.0,NNW,4.6,-,N/A,,Partly Cloudy,340,2013-02-22 21:54:00
5:54 PM,30.0,21.0,69,30.30,10.0,West,3.5,-,N/A,,Mostly Cloudy,270,2013-02-22 22:54:00
6:54 PM,30.0,21.9,72,30.30,10.0,Calm,Calm,-,N/A,,Clear,0,2013-02-22 23:54:00
7:54 PM,28.9,21.9,75,30.28,10.0,Calm,Calm,-,N/A,,Clear,0,2013-02-23 00:54:00
8:54 PM,30.0,21.9,72,30.26,10.0,Calm,Calm,-,N/A,,Clear,0,2013-02-23 01:54:00
9:54 PM,30.0,21.9,72,30.25,10.0,South,4.6,-,N/A,,Mostly Cloudy,170,2013-02-23 02:54:00
10:54 PM,30.9,21.9,69,30.25,10.0,South,3.5,-,N/A,,Mostly Cloudy,180,2013-02-23 03:54:00
11:54 PM,30.9,21.0,67,30.24,10.0,South,4.6,-,N/A,,Overcast,180,2013-02-23 04:54:00